createdAt,value
2019-04-10T00:00:11.125Z,101664.45
2019-04-10T00:02:39.786Z,101656.83
2019-04-10T00:05:08.193Z,101657.54
2019-04-10T00:07:37.290Z,101659.11
2019-04-10T00:10:06.350Z,101657.09
2019-04-10T00:12:35.914Z,101668.37
2019-04-10T00:15:05.157Z,101669.02
2019-04-10T00:17:34.043Z,101669.02
2019-04-10T00:20:02.433Z,101671.95
2019-04-10T00:22:31.080Z,101667.20
2019-04-10T00:25:00.101Z,101671.30
2019-04-10T00:27:28.472Z,101666.20
2019-04-10T00:29:57.506Z,101668.82
2019-04-10T00:32:25.793Z,101669.38
2019-04-10T00:34:55.978Z,101668.97
2019-04-10T00:37:28.706Z,101673.94
2019-04-10T00:39:55.067Z,101673.48
2019-04-10T00:42:23.371Z,101673.02
2019-04-10T00:44:52.220Z,101674.23
2019-04-10T00:47:21.193Z,101675.59
2019-04-10T00:49:50.336Z,101670.14
2019-04-10T00:52:19.708Z,101676.61
2019-04-10T00:54:48.779Z,101672.72
2019-04-10T00:57:17.163Z,101666.09
2019-04-10T00:59:45.386Z,101679.03
2019-04-10T01:02:13.963Z,101674.59
2019-04-10T01:04:42.566Z,101670.84
2019-04-10T01:07:11.175Z,101669.68
2019-04-10T01:09:39.801Z,101666.14
2019-04-10T01:12:08.049Z,101670.59
2019-04-10T01:14:36.241Z,101673.13
2019-04-10T01:17:06.217Z,101664.44
2019-04-10T01:19:34.439Z,101670.55
2019-04-10T01:22:03.106Z,101670.38
2019-04-10T01:24:31.372Z,101673.63
2019-04-10T01:26:59.583Z,101668.88
2019-04-10T01:29:27.778Z,101666.31
2019-04-10T01:31:56.014Z,101668.27
2019-04-10T01:34:25.329Z,101674.02
2019-04-10T01:36:54.624Z,101675.59
2019-04-10T01:39:24.580Z,101671.85
2019-04-10T01:41:52.860Z,101671.90
2019-04-10T01:44:21.083Z,101678.25
2019-04-10T01:46:49.273Z,101679.11
2019-04-10T01:49:17.792Z,101679.27
2019-04-10T01:51:46.120Z,101676.59
2019-04-10T01:54:15.175Z,101675.10
2019-04-10T01:56:43.888Z,101665.06
2019-04-10T01:59:12.404Z,101661.52
2019-04-10T02:01:57.302Z,101663.39
2019-04-10T02:04:25.524Z,101657.27
2019-04-10T02:06:53.854Z,101656.92
2019-04-10T02:09:22.020Z,101660.00
2019-04-10T02:11:50.283Z,101663.74
2019-04-10T02:14:18.442Z,101664.13
2019-04-10T02:16:47.282Z,101666.52
2019-04-10T02:19:16.350Z,101670.59
2019-04-10T02:21:44.672Z,101668.06
2019-04-10T02:24:12.902Z,101661.45
2019-04-10T02:26:41.385Z,101663.67
2019-04-10T02:29:11.263Z,101661.84
2019-04-10T02:31:39.792Z,101674.49
2019-04-10T02:34:09.400Z,101669.73
2019-04-10T02:36:38.699Z,101665.81
2019-04-10T02:39:19.457Z,101670.09
2019-04-10T02:41:38.596Z,101672.16
2019-04-10T02:44:07.889Z,101672.16
2019-04-10T02:46:36.871Z,101669.94
2019-04-10T02:49:06.205Z,101666.75
2019-04-10T02:51:35.659Z,101664.02
2019-04-10T02:54:05.034Z,101665.54
2019-04-10T02:56:36.682Z,101662.62
2019-04-10T02:59:05.143Z,101666.05
2019-04-10T03:01:33.532Z,101663.64
2019-04-10T03:04:03.304Z,101663.64
2019-04-10T03:06:33.474Z,101670.13
2019-04-10T03:09:16.337Z,101668.07
2019-04-10T03:11:33.035Z,101664.64
2019-04-10T03:14:03.389Z,101658.69
2019-04-10T03:16:31.326Z,101673.67
2019-04-10T03:18:59.619Z,101665.30
2019-04-10T03:21:27.828Z,101668.38
2019-04-10T03:23:56.059Z,101665.30
2019-04-10T03:26:24.260Z,101666.16
2019-04-10T03:28:53.457Z,101674.65
2019-04-10T03:31:23.016Z,101673.83
2019-04-10T03:33:55.340Z,101675.00
2019-04-10T03:36:23.316Z,101670.44
2019-04-10T03:38:59.538Z,101671.45
2019-04-10T03:41:22.011Z,101635.52
2019-04-10T03:43:50.192Z,101673.98
2019-04-10T03:46:19.461Z,101665.81
2019-04-10T03:48:49.361Z,101675.20
2019-04-10T03:51:18.579Z,101678.15
2019-04-10T03:53:46.943Z,101678.15
2019-04-10T03:56:15.778Z,101672.04
2019-04-10T03:58:44.457Z,101677.02
2019-04-10T04:01:12.671Z,101682.34
2019-04-10T04:03:40.935Z,101682.34
2019-04-10T04:06:09.493Z,101682.34
2019-04-10T04:08:37.716Z,101686.62
2019-04-10T04:11:05.931Z,101679.81
2019-04-10T04:13:34.141Z,101685.58
2019-04-10T04:16:02.806Z,101684.91
2019-04-10T04:18:31.172Z,101685.27
2019-04-10T04:20:59.420Z,101680.31
2019-04-10T04:23:27.785Z,101682.69
2019-04-10T04:25:56.854Z,101685.80
2019-04-10T04:28:25.741Z,101684.44
2019-04-10T04:30:54.048Z,101684.75
2019-04-10T04:33:23.220Z,101687.67
2019-04-10T04:35:51.499Z,101688.17
2019-04-10T04:38:19.998Z,101700.97
2019-04-10T04:40:48.721Z,101691.56
2019-04-10T04:43:17.017Z,101700.27
2019-04-10T04:45:46.047Z,101701.09
2019-04-10T04:48:14.887Z,101703.98
2019-04-10T04:50:43.611Z,101711.14
2019-04-10T04:53:11.759Z,101714.53
2019-04-10T04:55:40.047Z,101712.78
2019-04-10T04:58:09.709Z,101710.92
2019-04-10T05:00:38.089Z,101706.12
2019-04-10T05:03:07.681Z,101705.78
2019-04-10T05:05:35.988Z,101709.48
2019-04-10T05:08:05.911Z,101716.07
2019-04-10T05:10:35.606Z,101710.42
2019-04-10T05:13:04.095Z,101716.62
2019-04-10T05:15:33.253Z,101724.41
2019-04-10T05:18:02.035Z,101724.95
2019-04-10T05:20:41.232Z,101723.91
2019-04-10T05:23:00.342Z,101726.17
2019-04-10T05:25:29.400Z,101729.52
2019-04-10T05:27:57.676Z,101725.75
2019-04-10T05:30:27.199Z,101723.83
2019-04-10T05:32:55.716Z,101730.78
2019-04-10T05:35:23.942Z,101734.55
2019-04-10T05:37:52.148Z,101734.31
2019-04-10T05:40:20.366Z,101729.82
2019-04-10T05:42:49.119Z,101733.20
2019-04-10T05:45:17.527Z,101737.42
2019-04-10T05:47:46.567Z,101736.42
2019-04-10T05:50:15.202Z,101739.94
2019-04-10T05:52:43.483Z,101735.39
2019-04-10T05:55:11.856Z,101743.41
2019-04-10T05:57:40.663Z,101738.62
2019-04-10T06:00:10.416Z,101741.06
2019-04-10T06:02:39.827Z,101740.52
2019-04-10T06:05:08.166Z,101745.63
2019-04-10T06:07:37.125Z,101750.28
2019-04-10T06:10:10.223Z,101742.95
2019-04-10T06:12:38.276Z,101752.00
2019-04-10T06:15:08.725Z,101753.30
2019-04-10T06:17:38.482Z,101759.67
2019-04-10T06:20:14.220Z,101762.18
2019-04-10T06:22:41.550Z,101758.98
2019-04-10T06:25:11.715Z,101761.66
2019-04-10T06:27:40.766Z,101763.09
2019-04-10T06:30:09.973Z,101760.83
2019-04-10T06:32:38.279Z,101763.84
2019-04-10T06:35:08.080Z,101764.07
2019-04-10T06:37:37.999Z,101761.94
2019-04-10T06:40:15.335Z,101763.50
2019-04-10T06:42:46.232Z,101760.30
2019-04-10T06:45:07.507Z,101759.05
2019-04-10T06:47:36.162Z,101754.95
2019-04-10T06:50:06.608Z,101755.19
2019-04-10T06:52:34.854Z,101765.84
2019-04-10T06:55:04.948Z,101760.81
2019-04-10T06:57:45.135Z,101765.48
2019-04-10T07:00:06.467Z,101761.94
2019-04-10T07:02:36.080Z,101758.39
2019-04-10T07:05:08.754Z,101768.30
2019-04-10T07:07:49.522Z,101762.45
2019-04-10T07:10:20.485Z,101764.96
2019-04-10T07:12:37.544Z,101770.45
2019-04-10T07:15:06.233Z,101769.61
2019-04-10T07:17:38.383Z,101769.84
2019-04-10T07:20:05.802Z,101770.36
2019-04-10T07:22:34.009Z,101769.02
2019-04-10T07:25:02.859Z,101783.81
2019-04-10T07:27:35.414Z,101772.64
2019-04-10T07:30:01.615Z,101775.05
2019-04-10T07:32:30.000Z,101780.54
2019-04-10T07:35:01.055Z,101775.09
2019-04-10T07:37:28.566Z,101775.82
2019-04-10T07:39:59.751Z,101773.83
2019-04-10T07:42:33.946Z,101779.73
2019-04-10T07:44:56.964Z,101781.19
2019-04-10T07:47:25.333Z,101787.05
2019-04-10T07:49:54.534Z,101790.60
2019-04-10T07:52:24.014Z,101795.33
2019-04-10T07:54:52.465Z,101788.95
2019-04-10T07:57:20.670Z,101787.52
2019-04-10T07:59:49.710Z,101793.13
2019-04-10T08:02:18.006Z,101786.25
2019-04-10T08:04:47.294Z,101791.03
2019-04-10T08:07:28.645Z,101793.93
2019-04-10T08:09:46.377Z,101792.76
2019-04-10T08:12:15.570Z,101797.83
2019-04-10T08:14:44.277Z,101794.80
2019-04-10T08:17:12.872Z,101790.94
2019-04-10T08:19:41.520Z,101793.13
2019-04-10T08:22:10.325Z,101793.64
2019-04-10T08:24:38.635Z,101796.50
2019-04-10T08:27:07.377Z,101815.23
2019-04-10T08:29:36.436Z,101791.02
2019-04-10T08:32:05.597Z,101793.02
2019-04-10T08:34:33.903Z,101800.34
2019-04-10T08:37:02.413Z,101798.06
2019-04-10T08:39:37.732Z,101798.00
2019-04-10T08:42:00.627Z,101798.62
2019-04-10T08:44:29.868Z,101795.42
2019-04-10T08:46:58.497Z,101801.23
2019-04-10T08:49:26.746Z,101804.60
2019-04-10T08:51:55.563Z,101797.95
2019-04-10T08:54:24.144Z,101794.97
2019-04-10T08:56:52.747Z,101805.18
2019-04-10T08:59:21.398Z,101798.34
2019-04-10T09:01:49.608Z,101801.23
2019-04-10T09:04:17.942Z,101797.72
2019-04-10T09:06:47.351Z,101805.08
2019-04-10T09:09:15.678Z,101801.73
2019-04-10T09:11:44.899Z,101801.83
2019-04-10T09:14:13.805Z,101804.37
2019-04-10T09:16:42.734Z,101801.32
2019-04-10T09:19:11.968Z,101806.34
2019-04-10T09:21:40.267Z,101808.52
2019-04-10T09:24:08.544Z,101794.57
2019-04-10T09:26:38.263Z,101798.23
2019-04-10T09:29:06.807Z,101795.95
2019-04-10T09:31:35.100Z,101793.45
2019-04-10T09:34:03.382Z,101802.28
2019-04-10T09:36:31.595Z,101792.04
2019-04-10T09:39:01.010Z,101794.05
2019-04-10T09:41:30.026Z,101791.10
2019-04-10T09:43:58.359Z,101788.79
2019-04-10T09:46:26.887Z,101788.91
2019-04-10T09:48:56.202Z,101790.61
2019-04-10T09:51:25.536Z,101780.67
2019-04-10T09:53:53.869Z,101786.30
2019-04-10T09:56:22.097Z,101780.34
2019-04-10T09:58:51.864Z,101784.56
2019-04-10T10:01:20.267Z,101785.80
2019-04-10T10:03:48.766Z,101784.83
2019-04-10T10:06:25.136Z,101785.89
2019-04-10T10:08:48.075Z,101782.66
2019-04-10T10:11:16.694Z,101786.64
2019-04-10T10:13:45.863Z,101777.30
2019-04-10T10:16:14.775Z,101785.09
2019-04-10T10:18:43.638Z,101784.36
2019-04-10T10:21:12.480Z,101786.75
2019-04-10T10:23:40.732Z,101792.12
2019-04-10T10:26:09.973Z,101783.11
2019-04-10T10:28:39.851Z,101785.95
2019-04-10T10:31:08.214Z,101783.88
2019-04-10T10:33:37.475Z,101797.88
2019-04-10T10:36:05.902Z,101791.61
2019-04-10T10:38:34.868Z,101784.69
2019-04-10T10:41:03.141Z,101792.89
2019-04-10T10:43:32.189Z,101793.89
2019-04-10T10:46:00.980Z,101783.38
2019-04-10T10:48:29.570Z,101779.28
2019-04-10T10:50:58.331Z,101785.00
2019-04-10T10:53:28.203Z,101780.14
2019-04-10T10:55:56.508Z,101777.63
2019-04-10T10:58:25.820Z,101777.86
2019-04-10T11:00:54.157Z,101777.21
2019-04-10T11:03:22.543Z,101778.70
2019-04-10T11:05:50.799Z,101775.26
2019-04-10T11:08:20.876Z,101780.89
2019-04-10T11:13:19.236Z,101771.33
2019-04-10T11:15:48.483Z,101771.52
2019-04-10T11:18:18.011Z,101764.69
2019-04-10T11:20:47.919Z,101773.73
2019-04-10T11:23:17.906Z,101770.50
2019-04-10T11:25:46.539Z,101758.00
2019-04-10T11:28:16.150Z,101764.48
2019-04-10T11:30:44.990Z,101758.67
2019-04-10T11:33:14.607Z,101759.03
2019-04-10T11:35:43.939Z,101757.37
2019-04-10T11:38:13.451Z,101755.23
2019-04-10T11:40:41.998Z,101766.92
2019-04-10T11:43:12.331Z,101764.38
2019-04-10T11:45:45.445Z,101756.95
2019-04-10T11:48:10.457Z,101752.97
2019-04-10T11:50:42.495Z,101754.50
2019-04-10T11:53:10.473Z,101752.74
2019-04-10T11:55:43.872Z,101755.85
2019-04-10T11:58:11.337Z,101764.09
2019-04-10T12:00:50.547Z,101757.90
2019-04-10T12:03:12.698Z,101760.41
2019-04-10T12:05:42.255Z,101758.00
2019-04-10T12:13:10.752Z,101758.25
2019-04-10T12:15:38.975Z,101754.19
2019-04-10T12:18:07.200Z,101756.27
2019-04-10T12:20:35.498Z,101754.38
2019-04-10T12:23:04.949Z,101752.37
2019-04-10T12:25:33.213Z,101748.00
2019-04-10T12:28:01.434Z,101754.31
2019-04-10T12:30:29.643Z,101751.42
2019-04-10T12:32:57.910Z,101756.11
2019-04-10T12:35:26.260Z,101760.04
2019-04-10T12:38:02.281Z,101756.39
2019-04-10T12:40:24.517Z,101765.48
2019-04-10T12:42:52.742Z,101755.09
2019-04-10T12:45:22.029Z,101755.25
2019-04-10T12:47:50.862Z,101754.03
2019-04-10T12:50:19.097Z,101753.27
2019-04-10T12:52:47.926Z,101753.80
2019-04-10T12:55:16.778Z,101754.28
2019-04-10T12:57:45.447Z,101759.81
2019-04-10T13:02:42.738Z,101761.44
2019-04-10T13:05:11.340Z,101761.44
2019-04-10T13:07:40.015Z,101759.04
2019-04-10T13:10:08.738Z,101750.39
2019-04-10T13:12:37.651Z,101755.47
2019-04-10T13:15:07.513Z,101759.37
2019-04-10T13:17:36.073Z,101747.19
2019-04-10T13:20:07.582Z,101746.96
2019-04-10T13:22:36.120Z,101740.95
2019-04-10T13:25:06.001Z,101746.20
2019-04-10T13:27:34.821Z,101754.00
2019-04-10T13:30:04.911Z,101751.45
2019-04-10T13:32:34.020Z,101753.74
2019-04-10T13:35:02.213Z,101759.54
2019-04-10T13:37:31.621Z,101750.48
2019-04-10T13:39:59.913Z,101755.91
2019-04-10T13:42:28.119Z,101744.40
2019-04-10T13:44:57.164Z,101743.81
2019-04-10T13:47:25.855Z,101747.46
2019-04-10T13:49:54.552Z,101751.30
2019-04-10T13:52:23.791Z,101745.31
2019-04-10T13:54:52.651Z,101744.30
2019-04-10T13:57:22.190Z,101751.31
2019-04-10T13:59:50.803Z,101746.43
2019-04-10T14:02:21.514Z,101754.80
2019-04-10T14:04:49.760Z,101753.08
2019-04-10T14:07:18.065Z,101752.67
2019-04-10T14:09:51.135Z,101758.94
2019-04-10T14:12:16.631Z,101757.49
2019-04-10T14:14:44.896Z,101768.34
2019-04-10T14:17:13.201Z,101755.66
2019-04-10T14:19:41.554Z,101764.38
2019-04-10T14:22:09.831Z,101775.00
2019-04-10T14:24:42.888Z,101766.05
2019-04-10T14:27:09.870Z,101758.06
2019-04-10T14:29:38.636Z,101753.89
2019-04-10T14:32:09.216Z,101761.20
2019-04-10T14:34:38.795Z,101764.28
2019-04-10T14:37:09.375Z,101770.62
2019-04-10T14:39:37.669Z,101771.22
2019-04-10T14:42:06.501Z,101784.84
2019-04-10T14:44:34.934Z,101769.31
2019-04-10T14:47:04.426Z,101769.91
2019-04-10T14:49:33.419Z,101772.75
2019-04-10T14:52:03.086Z,101768.30
2019-04-10T14:54:32.180Z,101780.58
2019-04-10T14:57:00.709Z,101773.30
2019-04-10T14:59:28.917Z,101693.52
2019-04-10T15:01:58.006Z,101768.98
2019-04-10T15:04:26.938Z,101770.72
2019-04-10T15:06:55.570Z,101768.69
2019-04-10T15:09:26.154Z,101781.64
2019-04-10T15:11:55.259Z,101764.95
2019-04-10T15:14:23.846Z,101765.73
2019-04-10T15:16:55.501Z,101772.40
2019-04-10T15:19:22.743Z,101774.14
2019-04-10T15:21:52.231Z,101774.69
2019-04-10T15:24:21.627Z,101776.18
2019-04-10T15:26:50.964Z,101794.23
2019-04-10T15:29:20.399Z,101784.25
2019-04-10T15:31:50.206Z,101784.02
2019-04-10T15:34:18.472Z,101729.05
2019-04-10T15:36:48.040Z,101804.83
2019-04-10T15:39:16.895Z,101803.60
2019-04-10T15:41:45.582Z,101800.28
2019-04-10T15:44:14.884Z,101801.98
2019-04-10T15:46:43.493Z,101800.31
2019-04-10T15:49:11.843Z,101805.84
2019-04-10T15:51:41.273Z,101811.44
2019-04-10T15:54:10.033Z,101799.95
2019-04-10T15:56:38.265Z,101797.27
2019-04-10T15:59:06.487Z,101813.42
2019-04-10T16:01:35.145Z,101812.68
2019-04-10T16:04:03.397Z,101812.75
2019-04-10T16:06:31.641Z,101819.81
2019-04-10T16:09:00.910Z,101807.23
2019-04-10T16:11:43.798Z,101808.61
2019-04-10T16:14:22.018Z,101805.71
2019-04-10T16:16:52.887Z,101811.38
2019-04-10T16:19:39.064Z,101813.67
2019-04-10T16:22:08.965Z,101815.66
2019-04-10T16:24:37.699Z,101815.95
2019-04-10T16:27:07.585Z,101816.86
2019-04-10T16:29:36.471Z,101817.86
2019-04-10T16:32:06.333Z,101825.28
2019-04-10T16:34:34.576Z,101825.31
2019-04-10T16:37:02.904Z,101827.36
2019-04-10T16:39:31.453Z,101834.09
2019-04-10T16:42:00.047Z,101825.33
2019-04-10T16:44:28.950Z,101823.80
2019-04-10T16:46:57.463Z,101829.45
2019-04-10T16:49:25.820Z,101831.50
2019-04-10T16:51:54.015Z,101831.88
2019-04-10T16:54:22.244Z,101830.69
2019-04-10T16:56:50.953Z,101830.54
2019-04-10T16:59:19.298Z,101833.95
2019-04-10T17:01:47.862Z,101831.87
2019-04-10T17:04:16.792Z,101838.36
2019-04-10T17:06:46.112Z,101841.48
2019-04-10T17:09:16.581Z,101835.16
2019-04-10T17:11:45.218Z,101832.88
2019-04-10T17:14:13.776Z,101843.36
2019-04-10T17:16:42.057Z,101844.05
2019-04-10T17:19:10.359Z,101852.88
2019-04-10T17:21:38.909Z,101853.13
2019-04-10T17:24:07.224Z,101853.78
2019-04-10T17:26:35.503Z,101854.66
2019-04-10T17:29:04.943Z,101863.78
2019-04-10T17:31:33.183Z,101860.20
2019-04-10T17:34:02.800Z,101860.56
2019-04-10T17:36:31.086Z,101855.92
2019-04-10T17:39:00.809Z,101863.45
2019-04-10T17:41:29.516Z,101864.42
2019-04-10T17:43:58.819Z,101875.55
2019-04-10T17:46:27.651Z,101866.03
2019-04-10T17:48:56.025Z,101883.40
2019-04-10T17:51:25.788Z,101872.41
2019-04-10T17:53:54.136Z,101882.04
2019-04-10T17:56:22.364Z,101883.09
2019-04-10T17:58:50.577Z,101882.05
2019-04-10T18:01:20.874Z,101891.04
2019-04-10T18:03:53.678Z,101823.75
2019-04-10T18:06:19.387Z,101892.30
2019-04-10T18:08:47.668Z,101882.72
2019-04-10T18:11:16.186Z,101887.99
2019-04-10T18:13:44.984Z,101889.25
2019-04-10T18:16:13.270Z,101901.72
2019-04-10T18:18:42.148Z,101907.55
2019-04-10T18:21:10.809Z,101917.78
2019-04-10T18:23:39.754Z,101913.88
2019-04-10T18:26:08.709Z,101916.09
2019-04-10T18:28:37.999Z,101932.16
2019-04-10T18:31:06.593Z,101936.80
2019-04-10T18:33:36.333Z,101931.82
2019-04-10T18:36:05.006Z,101935.83
2019-04-10T18:38:33.558Z,101958.02
2019-04-10T18:41:05.256Z,101952.62
2019-04-10T18:43:32.016Z,101955.95
2019-04-10T18:46:08.729Z,101961.32
2019-04-10T18:48:30.429Z,101960.38
2019-04-10T18:50:59.541Z,101973.56
2019-04-10T18:53:28.873Z,101969.84
2019-04-10T18:55:57.243Z,101965.30
2019-04-10T18:58:30.221Z,101971.62
2019-04-10T19:01:16.794Z,101974.12
2019-04-10T19:03:59.692Z,101979.17
2019-04-10T19:06:28.635Z,101984.11
2019-04-10T19:09:07.752Z,101986.00
2019-04-10T19:11:32.422Z,101988.63
2019-04-10T19:13:57.256Z,101992.95
2019-04-10T19:16:25.764Z,101993.16
2019-04-10T19:18:55.300Z,101991.80
2019-04-10T19:21:24.546Z,101995.27
2019-04-10T19:23:55.599Z,102002.34
2019-04-10T19:26:24.113Z,101994.50
2019-04-10T19:28:52.935Z,102002.39
2019-04-10T19:31:24.583Z,102007.06
2019-04-10T19:33:53.320Z,102002.48
2019-04-10T19:36:21.879Z,102002.69
2019-04-10T19:38:50.129Z,101999.30
2019-04-10T19:41:25.248Z,102008.05
2019-04-10T19:43:48.640Z,102010.61
2019-04-10T19:46:17.553Z,102017.78
2019-04-10T19:48:49.769Z,102016.75
2019-04-10T19:51:16.397Z,102015.03
2019-04-10T19:53:45.772Z,102032.02
2019-04-10T19:56:14.098Z,102013.75
2019-04-10T19:58:42.326Z,102014.04
2019-04-10T20:01:10.922Z,102017.17
2019-04-10T20:03:39.690Z,102016.22
2019-04-10T20:06:07.975Z,102021.88
2019-04-10T20:08:36.165Z,102015.75
2019-04-10T20:11:04.541Z,102014.07
2019-04-10T20:13:32.711Z,102010.89
2019-04-10T20:16:01.379Z,102010.89
2019-04-10T20:18:29.625Z,102019.77
2019-04-10T20:20:58.247Z,102021.45
2019-04-10T20:23:27.794Z,102027.78
2019-04-10T20:25:59.319Z,102030.40
2019-04-10T20:28:28.679Z,102026.50
2019-04-10T20:30:58.089Z,102036.61
2019-04-10T20:33:27.180Z,102039.87
2019-04-10T20:35:56.380Z,102041.23
2019-04-10T20:38:25.204Z,102025.51
2019-04-10T20:40:54.096Z,102045.77
2019-04-10T20:43:22.779Z,102030.86
2019-04-10T20:45:51.281Z,102034.67
2019-04-10T20:48:20.348Z,102040.23
2019-04-10T20:50:50.203Z,102050.86
2019-04-10T20:53:19.917Z,102046.95
2019-04-10T20:55:48.301Z,102041.68
2019-04-10T20:58:17.643Z,102055.05
2019-04-10T21:00:47.072Z,102051.79
2019-04-10T21:03:15.714Z,102052.12
2019-04-10T21:05:44.548Z,102046.95
2019-04-10T21:08:13.738Z,102059.42
2019-04-10T21:10:42.896Z,102056.98
2019-04-10T21:13:11.215Z,102057.64
2019-04-10T21:15:39.544Z,102066.08
2019-04-10T21:18:07.984Z,102064.19
2019-04-10T21:20:36.608Z,102067.23
2019-04-10T21:23:05.585Z,102072.92
2019-04-10T21:25:35.045Z,102077.04
2019-04-10T21:28:04.734Z,102073.78
2019-04-10T21:30:46.613Z,102093.70
2019-04-10T21:33:25.423Z,102076.08
2019-04-10T21:35:54.137Z,102077.11
2019-04-10T21:38:23.492Z,102080.71
2019-04-10T21:40:51.865Z,102077.77
2019-04-10T21:43:21.349Z,102084.95
2019-04-10T21:45:50.210Z,102079.98
2019-04-10T21:48:18.904Z,102093.36
2019-04-10T21:50:47.121Z,102089.97
2019-04-10T21:53:16.361Z,102080.92
2019-04-10T21:55:45.849Z,102091.89
2019-04-10T21:58:14.499Z,102092.91
2019-04-10T22:00:53.021Z,102084.55
2019-04-10T22:03:21.627Z,102097.09
2019-04-10T22:06:01.535Z,102094.05
2019-04-10T22:08:31.766Z,102093.91
2019-04-10T22:11:00.798Z,102089.67
2019-04-10T22:13:30.195Z,102090.39
2019-04-10T22:15:59.559Z,102088.67
2019-04-10T22:18:28.006Z,102093.20
2019-04-10T22:20:57.173Z,102093.58
2019-04-10T22:23:26.559Z,102092.92
2019-04-10T22:25:54.826Z,102110.57
2019-04-10T22:28:23.293Z,102100.63
2019-04-10T22:30:52.585Z,102095.49
2019-04-10T22:33:22.279Z,102105.91
2019-04-10T22:35:50.582Z,102109.58
2019-04-10T22:38:19.413Z,102105.84
2019-04-10T22:40:48.282Z,102103.10
2019-04-10T22:43:16.495Z,102107.04
2019-04-10T22:45:44.697Z,102074.66
2019-04-10T22:48:12.950Z,102110.44
2019-04-10T22:50:41.532Z,102119.82
2019-04-10T22:53:10.010Z,102123.22
2019-04-10T22:55:38.494Z,102123.01
2019-04-10T22:58:07.285Z,102124.38
2019-04-10T23:00:35.557Z,102122.19
2019-04-10T23:03:03.728Z,102139.14
2019-04-10T23:05:32.297Z,102126.81
2019-04-10T23:08:01.119Z,102129.55
2019-04-10T23:10:29.519Z,102129.20
2019-04-10T23:13:01.390Z,102128.56
2019-04-10T23:15:27.673Z,102133.08
2019-04-10T23:17:57.265Z,102129.28
2019-04-10T23:20:26.044Z,102123.28
2019-04-10T23:22:54.820Z,102134.38
2019-04-10T23:25:23.073Z,102125.44
2019-04-10T23:27:53.623Z,102124.72
2019-04-10T23:30:21.608Z,102125.68
2019-04-10T23:32:49.783Z,102126.33
2019-04-10T23:35:19.098Z,102120.68
2019-04-10T23:37:47.403Z,102125.30
2019-04-10T23:40:16.762Z,102129.28
2019-04-10T23:42:46.255Z,102134.11
2019-04-10T23:45:15.543Z,102128.31
2019-04-10T23:47:44.440Z,102130.20
2019-04-10T23:50:12.866Z,102131.58
2019-04-10T23:52:42.018Z,102134.83
2019-04-10T23:55:10.509Z,102130.41
2019-04-10T23:57:38.730Z,102129.41
